Time;durP1;ratioP1;P1;durP2;ratioP2;P2;SDS_P1;SDS_P2;PMS_P1;PMS_P2;Temp;Humidity;BMP_temperature;BMP_pressure;BME280_temperature;BME280_humidity;BME280_pressure;Samples;Min_cycle;Max_cycle;Signal;HPM_P1;HPM_P2
2022/06/25 00:01:24;;;;;;;25.80;23.13;;;17.60;99.90;;;;;;5040108;28;20127;-78
2022/06/25 00:03:50;;;;;;;24.17;21.87;;;17.60;99.90;;;;;;5027601;28;20419;-78
2022/06/25 00:06:17;;;;;;;28.77;23.30;;;17.60;99.90;;;;;;5049059;28;20103;-78
2022/06/25 00:08:47;;;;;;;20.77;18.53;;;17.60;99.90;;;;;;5042188;28;20051;-77
2022/06/25 00:14:03;;;;;;;20.80;18.63;;;17.60;99.90;;;;;;5034734;28;20055;-77
2022/06/25 00:16:29;;;;;;;78.07;22.43;;;17.50;99.90;;;;;;5017154;28;20163;-78
2022/06/25 00:18:55;;;;;;;20.40;18.17;;;17.50;99.90;;;;;;5045860;28;20068;-77
2022/06/25 00:21:21;;;;;;;21.57;19.27;;;17.40;99.90;;;;;;5030408;28;20557;-78
2022/06/25 00:23:46;;;;;;;19.70;17.63;;;17.50;99.90;;;;;;5034219;28;20063;-78
2022/06/25 00:26:12;;;;;;;19.50;17.47;;;17.50;99.90;;;;;;5025523;28;20099;-78
2022/06/25 00:28:38;;;;;;;18.60;16.80;;;17.50;99.90;;;;;;5034155;28;20410;-77
2022/06/25 00:31:05;;;;;;;17.27;15.60;;;17.50;99.90;;;;;;5043787;28;20049;-77
2022/06/25 00:33:31;;;;;;;17.13;15.53;;;17.50;99.90;;;;;;5045764;28;20132;-77
2022/06/25 00:35:57;;;;;;;16.97;15.17;;;17.50;99.90;;;;;;5037785;28;20231;-77
2022/06/25 00:38:23;;;;;;;17.33;15.63;;;17.50;99.90;;;;;;5027571;28;20037;-78
2022/06/25 00:40:48;;;;;;;16.00;14.40;;;17.50;99.90;;;;;;5032987;28;20042;-77
2022/06/25 00:43:14;;;;;;;16.33;14.63;;;17.50;99.90;;;;;;5016282;28;20060;-77
2022/06/25 00:45:42;;;;;;;14.57;13.13;;;17.50;99.90;;;;;;5015584;28;20040;-77
2022/06/25 00:48:10;;;;;;;15.33;13.93;;;17.50;99.90;;;;;;5034607;28;20144;-77
2022/06/25 00:50:37;;;;;;;16.00;14.20;;;17.50;99.90;;;;;;5045123;28;20049;-77
2022/06/25 00:53:04;;;;;;;16.17;14.57;;;17.50;99.90;;;;;;5015990;28;20036;-78
2022/06/25 00:55:31;;;;;;;17.47;15.77;;;17.50;99.90;;;;;;5011491;28;20103;-77
2022/06/25 00:58:00;;;;;;;16.70;15.10;;;17.50;99.90;;;;;;5033107;28;20241;-77
2022/06/25 01:00:26;;;;;;;15.53;14.13;;;17.50;99.90;;;;;;5028072;28;20057;-77
2022/06/25 01:02:53;;;;;;;15.33;13.93;;;17.40;99.90;;;;;;5029744;28;20064;-78
2022/06/25 01:05:20;;;;;;;20.07;16.10;;;17.40;99.90;;;;;;5033133;28;20052;-78
2022/06/25 01:07:50;;;;;;;16.47;14.80;;;17.40;99.90;;;;;;5027200;28;20041;-77
2022/06/25 01:10:17;;;;;;;16.90;15.33;;;17.40;99.90;;;;;;5032427;28;20127;-77
2022/06/25 01:12:42;;;;;;;17.60;15.90;;;17.40;99.90;;;;;;5025691;28;20127;-77
2022/06/25 01:15:14;;;;;;;17.57;14.67;;;17.40;99.90;;;;;;5020472;28;20037;-77
2022/06/25 01:17:41;;;;;;;16.07;14.37;;;17.40;99.90;;;;;;5026576;28;20042;-77
2022/06/25 01:20:09;;;;;;;15.07;13.60;;;17.40;99.90;;;;;;5016656;28;20045;-77
2022/06/25 01:22:36;;;;;;;15.97;13.83;;;17.40;99.90;;;;;;5032882;28;20107;-78
2022/06/25 01:25:02;;;;;;;15.37;13.97;;;17.30;99.90;;;;;;5023928;28;20045;-77
2022/06/25 01:27:27;;;;;;;15.77;14.27;;;17.30;99.90;;;;;;5031437;28;20044;-77
2022/06/25 01:29:53;;;;;;;15.33;13.40;;;17.30;99.90;;;;;;5027942;28;20041;-77
2022/06/25 01:32:19;;;;;;;16.57;14.23;;;17.40;99.90;;;;;;5034843;28;20124;-77
2022/06/25 01:34:45;;;;;;;15.07;13.57;;;17.30;99.90;;;;;;5016330;28;20073;-77
2022/06/25 01:37:10;;;;;;;15.70;14.00;;;17.30;99.90;;;;;;5029365;28;20037;-77
2022/06/25 01:39:38;;;;;;;13.93;12.57;;;17.30;99.90;;;;;;5016453;28;20072;-77
2022/06/25 01:42:04;;;;;;;15.50;13.83;;;17.30;99.90;;;;;;5010644;28;20048;-77
2022/06/25 01:44:30;;;;;;;14.70;13.10;;;17.20;99.90;;;;;;5005893;28;20060;-77
2022/06/25 01:46:56;;;;;;;14.40;13.00;;;17.20;99.90;;;;;;5031809;28;20486;-77
2022/06/25 01:49:22;;;;;;;15.63;14.10;;;17.20;99.90;;;;;;5025893;28;20037;-77
2022/06/25 01:51:47;;;;;;;15.07;13.57;;;17.20;99.90;;;;;;5025168;28;20044;-77
2022/06/25 01:54:13;;;;;;;16.13;12.47;;;17.20;99.90;;;;;;5008312;28;20482;-77
2022/06/25 01:56:41;;;;;;;17.87;15.97;;;17.10;99.90;;;;;;5026448;28;20398;-77
2022/06/25 01:59:07;;;;;;;14.23;12.60;;;17.10;99.90;;;;;;5032661;28;20491;-77
2022/06/25 02:01:34;;;;;;;13.47;12.07;;;17.10;99.90;;;;;;5025985;28;20132;-77
2022/06/25 02:04:00;;;;;;;14.87;12.57;;;17.00;99.90;;;;;;5049365;28;20128;-77
2022/06/25 02:06:25;;;;;;;15.37;13.97;;;16.90;99.90;;;;;;5010995;28;20064;-77
2022/06/25 02:08:55;;;;;;;17.07;12.87;;;16.90;99.90;;;;;;5028535;28;20045;-77
2022/06/25 02:11:21;;;;;;;14.63;13.00;;;16.90;99.90;;;;;;5050727;28;20049;-76
2022/06/25 02:13:48;;;;;;;15.63;14.13;;;16.80;99.90;;;;;;5034445;28;20402;-77
2022/06/25 02:16:15;;;;;;;14.00;12.57;;;16.80;99.90;;;;;;5026160;28;20151;-77
2022/06/25 02:18:40;;;;;;;13.77;12.40;;;16.70;99.90;;;;;;5044161;28;20048;-77
2022/06/25 02:21:06;;;;;;;14.27;12.87;;;16.60;99.90;;;;;;5035332;28;20040;-77
2022/06/25 02:23:32;;;;;;;15.00;13.60;;;16.60;99.90;;;;;;5012417;28;20519;-77
2022/06/25 02:25:57;;;;;;;14.43;12.77;;;16.60;99.90;;;;;;5034773;28;20060;-77
2022/06/25 02:28:25;;;;;;;17.57;15.70;;;16.60;99.90;;;;;;5036244;28;20557;-77
2022/06/25 02:30:52;;;;;;;18.50;16.63;;;16.50;99.90;;;;;;5043985;28;20048;-77
2022/06/25 02:33:19;;;;;;;21.43;16.27;;;16.50;99.90;;;;;;5019024;28;20053;-77
2022/06/25 02:35:45;;;;;;;16.77;15.07;;;16.60;99.90;;;;;;5026971;28;20519;-77
2022/06/25 02:38:14;;;;;;;17.97;15.23;;;16.60;99.90;;;;;;5016849;28;20041;-77
2022/06/25 02:40:42;;;;;;;17.97;16.20;;;16.60;99.90;;;;;;5038626;28;20056;-77
2022/06/25 02:43:08;;;;;;;20.77;18.70;;;16.60;99.90;;;;;;5017366;28;20580;-77
2022/06/25 02:45:39;;;;;;;19.30;17.30;;;16.60;99.90;;;;;;5028982;28;20490;-77
2022/06/25 02:48:06;;;;;;;19.47;17.13;;;16.60;99.90;;;;;;5028278;28;20049;-79
2022/06/25 02:50:32;;;;;;;17.57;15.93;;;16.60;99.90;;;;;;5015810;28;20208;-79
2022/06/25 02:52:58;;;;;;;21.30;18.27;;;16.50;99.90;;;;;;5047213;28;20118;-79
2022/06/25 02:58:54;;;;;;;21.43;19.17;;;16.60;99.90;;;;;;5031445;28;20426;-79
2022/06/25 03:00:55;;;;;;;19.43;16.80;;;16.50;99.90;;;;;;5045178;28;20041;-79
2022/06/25 03:03:22;;;;;;;21.50;19.43;;;16.50;99.90;;;;;;5067178;28;20048;-79
2022/06/25 03:05:48;;;;;;;22.67;20.07;;;16.40;99.90;;;;;;5026914;28;20045;-78
2022/06/25 03:08:14;;;;;;;19.27;17.37;;;16.50;99.90;;;;;;5051519;28;20141;-78
2022/06/25 03:10:40;;;;;;;20.90;18.33;;;16.50;99.90;;;;;;5013744;28;20514;-79
2022/06/25 03:13:06;;;;;;;20.57;18.47;;;16.40;99.90;;;;;;5042844;28;20045;-79
2022/06/25 03:15:32;;;;;;;27.17;24.13;;;16.50;99.90;;;;;;5029373;28;20041;-78
2022/06/25 03:17:59;;;;;;;22.77;20.43;;;16.40;99.90;;;;;;5023700;28;20048;-78
2022/06/25 03:20:45;;;;;;;20.70;18.50;;;16.40;99.90;;;;;;5046475;28;20572;-78
2022/06/25 03:23:11;;;;;;;25.77;21.23;;;16.40;99.90;;;;;;5028453;28;20048;-78
2022/06/25 03:25:37;;;;;;;22.50;19.03;;;16.40;99.90;;;;;;5019972;28;20037;-78
2022/06/25 03:28:04;;;;;;;20.40;17.47;;;16.40;99.90;;;;;;5029980;28;20538;-79
2022/06/25 03:30:33;;;;;;;25.13;22.57;;;16.40;99.90;;;;;;5027341;28;20040;-79
2022/06/25 03:32:59;;;;;;;21.73;19.50;;;16.40;99.90;;;;;;5018165;28;20044;-79
2022/06/25 03:35:35;;;;;;;24.43;21.30;;;16.40;99.90;;;;;;5024050;28;20041;-79
2022/06/25 03:38:12;;;;;;;21.53;19.40;;;16.40;99.90;;;;;;5019313;28;20136;-78
2022/06/25 03:40:39;;;;;;;22.93;19.97;;;16.40;99.90;;;;;;5028581;28;20061;-79
2022/06/25 03:43:07;;;;;;;21.10;18.67;;;16.40;99.90;;;;;;5034686;28;20048;-78
2022/06/25 03:45:35;;;;;;;20.47;18.23;;;16.40;99.90;;;;;;5019075;28;20040;-78
2022/06/25 03:48:02;;;;;;;20.50;17.80;;;16.40;99.90;;;;;;5026222;28;20364;-79
2022/06/25 03:50:33;;;;;;;20.83;18.40;;;16.40;99.90;;;;;;5048252;28;20029;-79
2022/06/25 03:52:59;;;;;;;19.53;17.67;;;16.40;99.90;;;;;;5007171;28;20499;-79
2022/06/25 03:55:26;;;;;;;19.43;17.43;;;16.40;99.90;;;;;;5032770;28;20142;-79
2022/06/25 03:57:52;;;;;;;20.07;17.97;;;16.40;99.90;;;;;;5028884;28;20135;-79
2022/06/25 04:00:27;;;;;;;20.07;18.07;;;16.40;99.90;;;;;;5032528;28;20036;-78
2022/06/25 04:02:58;;;;;;;21.00;17.23;;;16.40;99.90;;;;;;5048173;28;20064;-79
2022/06/25 04:05:30;;;;;;;18.47;16.67;;;16.50;99.90;;;;;;5028002;28;20069;-79
2022/06/25 04:08:13;;;;;;;18.77;16.75;;;16.50;99.90;;;;;;5032934;28;20408;-79
2022/06/25 04:10:41;;;;;;;17.80;15.90;;;16.50;99.90;;;;;;5023957;28;20488;-79
2022/06/25 04:13:07;;;;;;;17.43;15.83;;;16.50;99.90;;;;;;5013864;28;20045;-79
2022/06/25 04:15:34;;;;;;;18.73;16.80;;;16.50;99.90;;;;;;5008708;28;20045;-79
2022/06/25 04:18:00;;;;;;;16.70;15.00;;;16.50;99.90;;;;;;5050491;28;20040;-79
2022/06/25 04:20:25;;;;;;;17.43;15.77;;;16.60;99.90;;;;;;5018221;28;20071;-79
2022/06/25 04:22:51;;;;;;;17.80;15.67;;;16.60;99.90;;;;;;5024928;28;20077;-79
2022/06/25 04:25:17;;;;;;;17.67;15.87;;;16.60;99.90;;;;;;5050111;28;20051;-78
2022/06/25 04:30:29;;;;;;;16.30;14.60;;;16.70;99.90;;;;;;5046901;28;20036;-79
2022/06/25 04:32:55;;;;;;;15.77;13.17;;;16.70;99.90;;;;;;5030048;28;20406;-78
2022/06/25 04:35:31;;;;;;;15.70;14.10;;;16.70;99.90;;;;;;5049120;28;20037;-81
2022/06/25 04:38:00;;;;;;;16.03;12.93;;;16.80;99.90;;;;;;5034914;28;20040;-78
2022/06/25 04:40:29;;;;;;;15.27;13.53;;;16.80;99.90;;;;;;5026646;28;20044;-79
2022/06/25 04:42:56;;;;;;;14.57;13.17;;;16.90;99.90;;;;;;5033987;28;20606;-79
2022/06/25 04:45:22;;;;;;;16.17;13.10;;;16.90;99.90;;;;;;5026194;28;20557;-80
2022/06/25 04:48:00;;;;;;;14.40;12.90;;;16.90;99.90;;;;;;5029867;28;20087;-79
2022/06/25 04:50:46;;;;;;;13.90;12.37;;;17.00;99.90;;;;;;5035701;28;20186;-79
2022/06/25 04:53:12;;;;;;;17.70;12.07;;;17.00;99.90;;;;;;5017347;28;20045;-79
2022/06/25 04:55:38;;;;;;;15.13;12.47;;;17.00;99.90;;;;;;5031953;28;20037;-79
2022/06/25 04:58:05;;;;;;;13.30;12.00;;;17.10;99.90;;;;;;5023648;28;20511;-79
2022/06/25 05:00:40;;;;;;;13.40;11.43;;;17.10;99.90;;;;;;5044605;28;20073;-80
2022/06/25 05:03:06;;;;;;;13.03;11.73;;;17.20;99.90;;;;;;5042481;28;20045;-79
2022/06/25 05:05:32;;;;;;;13.17;11.73;;;17.20;99.90;;;;;;5016256;28;20392;-78
2022/06/25 05:08:05;;;;;;;;;;;17.30;99.90;;;;;;5039860;28;20040;-79
2022/06/25 05:10:31;;;;;;;11.00;9.90;;;17.40;99.90;;;;;;5031884;28;19917;-79
2022/06/25 05:13:12;;;;;;;11.27;10.13;;;17.40;99.90;;;;;;5049799;28;20040;-80
2022/06/25 05:15:43;;;;;;;13.00;9.43;;;17.40;99.90;;;;;;5027895;28;20418;-79
2022/06/25 05:18:11;;;;;;;10.67;9.67;;;17.50;99.90;;;;;;5050435;28;20037;-80
2022/06/25 05:20:38;;;;;;;12.93;9.67;;;17.50;99.90;;;;;;5034337;28;20041;-78
2022/06/25 05:23:04;;;;;;;12.33;8.80;;;17.60;99.90;;;;;;5017718;28;20052;-81
2022/06/25 05:25:30;;;;;;;10.00;9.10;;;17.70;99.90;;;;;;5032986;28;20037;-79
2022/06/25 05:27:55;;;;;;;11.13;8.17;;;17.70;99.90;;;;;;5015124;28;20034;-80
2022/06/25 05:30:21;;;;;;;9.20;8.30;;;17.80;99.90;;;;;;5050315;28;20045;-79
2022/06/25 05:32:48;;;;;;;8.83;7.87;;;17.80;99.90;;;;;;5018116;28;20045;-79
2022/06/25 05:35:14;;;;;;;12.37;8.40;;;18.10;99.90;;;;;;5017376;28;20053;-79
2022/06/25 05:37:41;;;;;;;8.37;7.47;;;18.60;99.90;;;;;;5033713;28;20485;-80
2022/06/25 05:40:09;;;;;;;8.63;7.73;;;18.80;99.90;;;;;;5018192;28;20224;-80
2022/06/25 05:42:36;;;;;;;9.27;7.80;;;18.80;99.90;;;;;;5020260;28;20048;-80
2022/06/25 05:45:02;;;;;;;11.97;8.10;;;18.70;99.90;;;;;;5050947;28;20041;-80
2022/06/25 05:47:28;;;;;;;10.83;8.90;;;18.60;99.90;;;;;;5037478;28;20037;-79
2022/06/25 05:49:55;;;;;;;9.73;8.07;;;18.60;99.90;;;;;;5052890;28;20527;-80
2022/06/25 05:52:22;;;;;;;9.80;8.80;;;18.60;99.90;;;;;;5048797;28;20071;-80
2022/06/25 05:54:48;;;;;;;11.00;7.20;;;18.60;99.90;;;;;;5053218;28;20060;-80
2022/06/25 05:57:14;;;;;;;8.60;7.70;;;18.60;99.90;;;;;;5053085;28;20045;-79
2022/06/25 05:59:40;;;;;;;10.60;7.67;;;18.60;99.90;;;;;;5054058;28;20075;-80
2022/06/25 06:02:06;;;;;;;9.70;7.53;;;18.60;99.90;;;;;;5050909;28;20438;-80
2022/06/25 06:04:32;;;;;;;9.97;7.13;;;18.70;99.90;;;;;;5037562;28;20067;-79
2022/06/25 06:07:00;;;;;;;10.13;7.00;;;18.90;99.90;;;;;;5052778;28;20033;-80
2022/06/25 06:09:27;;;;;;;8.90;7.00;;;19.10;99.90;;;;;;5018172;28;20053;-79
2022/06/25 06:11:53;;;;;;;9.93;7.13;;;19.00;99.90;;;;;;5017817;28;20041;-79
2022/06/25 06:14:18;;;;;;;9.20;7.10;;;19.00;99.90;;;;;;5033052;28;20044;-82
2022/06/25 06:16:44;;;;;;;7.63;6.77;;;19.00;99.90;;;;;;5054115;28;20108;-79
2022/06/25 06:19:10;;;;;;;8.33;5.80;;;19.00;99.90;;;;;;5027998;28;20049;-80
2022/06/25 06:21:36;;;;;;;9.83;6.27;;;19.00;99.90;;;;;;5038306;28;20469;-79
2022/06/25 06:24:03;;;;;;;7.27;5.70;;;19.10;99.90;;;;;;5051815;28;20052;-81
2022/06/25 06:26:29;;;;;;;7.83;5.50;;;19.00;99.90;;;;;;5050701;28;20052;-80
2022/06/25 06:28:54;;;;;;;7.03;5.90;;;19.00;99.90;;;;;;5033869;28;20437;-81
2022/06/25 06:31:20;;;;;;;9.57;5.10;;;19.10;99.90;;;;;;5039268;28;20044;-80
2022/06/25 06:33:46;;;;;;;11.07;5.57;;;19.10;99.90;;;;;;5033074;28;20037;-81
2022/06/25 06:36:12;;;;;;;9.07;5.10;;;19.20;99.90;;;;;;5048479;28;20116;-78
2022/06/25 06:38:38;;;;;;;9.23;5.37;;;19.20;99.90;;;;;;5054147;28;20494;-81
2022/06/25 06:41:05;;;;;;;6.07;5.13;;;19.30;99.90;;;;;;5037618;28;20055;-80
2022/06/25 06:43:31;;;;;;;5.77;4.37;;;19.50;99.90;;;;;;5033344;28;20053;-79
2022/06/25 06:45:57;;;;;;;8.00;4.90;;;19.60;99.90;;;;;;5036442;28;20063;-79
2022/06/25 06:48:23;;;;;;;8.83;4.30;;;19.60;99.90;;;;;;5021703;28;20546;-80
2022/06/25 06:50:49;;;;;;;7.77;4.30;;;19.60;99.90;;;;;;5052493;28;20546;-80
2022/06/25 06:53:15;;;;;;;10.77;4.20;;;19.60;99.90;;;;;;5045367;28;20064;-78
2022/06/25 06:55:40;;;;;;;4.77;3.50;;;19.70;99.90;;;;;;5049057;28;20044;-81
2022/06/25 06:58:08;;;;;;;7.23;3.90;;;19.70;99.90;;;;;;5021946;28;20048;-80
2022/06/25 07:00:33;;;;;;;7.57;3.50;;;19.80;99.90;;;;;;5016947;28;20052;-81
2022/06/25 07:02:59;;;;;;;5.17;3.50;;;19.70;99.90;;;;;;5032824;28;20044;-78
2022/06/25 07:05:25;;;;;;;8.83;3.83;;;19.80;99.90;;;;;;5033110;28;20044;-80
2022/06/25 07:07:51;;;;;;;8.27;3.50;;;19.90;99.90;;;;;;5047508;28;20499;-80
2022/06/25 07:10:17;;;;;;;5.43;2.93;;;20.00;99.90;;;;;;5036793;28;20067;-80
2022/06/25 07:12:42;;;;;;;5.07;3.30;;;20.10;99.90;;;;;;5050858;28;20107;-79
2022/06/25 07:15:10;;;;;;;7.05;3.20;;;20.30;99.90;;;;;;5033257;28;20185;-79
2022/06/25 07:17:36;;;;;;;8.13;4.17;;;20.40;99.90;;;;;;5027483;28;20056;-80
2022/06/25 07:20:01;;;;;;;6.43;4.13;;;20.40;99.90;;;;;;5048662;28;20473;-79
2022/06/25 07:22:27;;;;;;;6.37;4.17;;;20.30;99.90;;;;;;5069780;28;20051;-80
2022/06/25 07:24:53;;;;;;;8.07;3.90;;;20.30;99.90;;;;;;5048494;28;20040;-80
2022/06/25 07:27:19;;;;;;;8.93;3.80;;;20.30;99.90;;;;;;5028765;28;20033;-80
2022/06/25 07:29:45;;;;;;;8.90;3.87;;;20.30;99.90;;;;;;5020063;28;20083;-81
2022/06/25 07:32:12;;;;;;;4.53;3.40;;;20.40;99.90;;;;;;5036259;28;20045;-81
2022/06/25 07:34:38;;;;;;;8.30;3.70;;;20.30;99.90;;;;;;5032670;28;20041;-79
2022/06/25 07:37:04;;;;;;;7.27;3.50;;;20.40;99.90;;;;;;5022575;28;20561;-80
2022/06/25 07:39:29;;;;;;;5.77;3.47;;;20.50;99.90;;;;;;5036377;28;20132;-80
2022/06/25 07:41:55;;;;;;;5.90;3.20;;;20.50;99.90;;;;;;5048770;28;20490;-79
2022/06/25 07:44:21;;;;;;;10.27;3.20;;;20.50;99.90;;;;;;5048534;28;20094;-79
2022/06/25 07:46:47;;;;;;;6.97;3.33;;;20.60;99.90;;;;;;5049934;28;20586;-81
2022/06/25 07:49:14;;;;;;;8.67;2.90;;;20.60;99.90;;;;;;5050049;28;20049;-80
2022/06/25 07:52:00;;;;;;;5.80;3.50;;;20.70;99.90;;;;;;5030162;28;20060;-81
2022/06/25 07:54:28;;;;;;;6.93;2.78;;;20.70;99.90;;;;;;5005243;28;20045;-80
2022/06/25 07:56:53;;;;;;;7.78;2.97;;;20.80;99.90;;;;;;5035635;28;20041;-79
2022/06/25 07:59:20;;;;;;;5.63;3.20;;;20.90;99.90;;;;;;5033793;28;20051;-81
2022/06/25 08:01:46;;;;;;;5.47;3.10;;;20.90;99.90;;;;;;5045626;28;20041;-80
2022/06/25 08:04:12;;;;;;;6.28;2.80;;;21.00;99.90;;;;;;5046461;28;20059;-81
2022/06/25 08:06:41;;;;;;;6.20;2.70;;;21.00;99.90;;;;;;5049393;28;20052;-82
2022/06/25 08:09:07;;;;;;;4.05;2.72;;;21.10;99.90;;;;;;5040058;28;20048;-79
2022/06/25 08:11:33;;;;;;;6.75;3.15;;;21.20;99.90;;;;;;5032703;28;20037;-80
2022/06/25 08:13:59;;;;;;;5.45;2.80;;;21.30;99.90;;;;;;5027128;28;20557;-80
2022/06/25 08:16:25;;;;;;;5.00;2.75;;;21.30;99.90;;;;;;5007676;28;20044;-80
2022/06/25 08:18:51;;;;;;;6.13;2.33;;;21.40;99.90;;;;;;5016426;28;20060;-80
2022/06/25 08:21:17;;;;;;;5.70;2.95;;;21.40;99.90;;;;;;5031712;28;20521;-80
2022/06/25 08:23:44;;;;;;;6.70;2.83;;;21.50;99.90;;;;;;5043167;28;20047;-80
2022/06/25 08:26:10;;;;;;;6.18;2.45;;;21.50;99.90;;;;;;5024047;28;20102;-81
2022/06/25 08:28:36;;;;;;;7.55;2.60;;;21.60;99.90;;;;;;5035836;28;20046;-80
2022/06/25 08:31:02;;;;;;;6.32;2.50;;;21.80;99.90;;;;;;5022029;28;20071;-80
2022/06/25 08:33:28;;;;;;;6.10;2.20;;;21.90;99.90;;;;;;5034126;28;20033;-83
2022/06/25 08:35:54;;;;;;;3.30;1.98;;;21.90;99.90;;;;;;5066036;28;20048;-82
2022/06/25 08:38:19;;;;;;;4.32;2.17;;;22.00;99.90;;;;;;5047358;28;20037;-78
2022/06/25 08:40:47;;;;;;;4.22;2.00;;;22.10;99.90;;;;;;5033165;28;20052;-80
2022/06/25 08:43:13;;;;;;;7.82;2.08;;;22.10;99.90;;;;;;5028954;28;20044;-81
2022/06/25 08:45:38;;;;;;;3.88;1.75;;;22.10;99.90;;;;;;5031872;28;20095;-83
2022/06/25 08:48:22;;;;;;;3.63;1.90;;;22.20;99.90;;;;;;5101417;22;20041;-88
2022/06/25 08:50:49;;;;;;;7.68;2.10;;;22.30;99.90;;;;;;5056690;28;20490;-90
2022/06/25 08:53:17;;;;;;;5.43;1.95;;;22.30;99.90;;;;;;5071440;28;20121;-89
2022/06/25 08:55:45;;;;;;;6.35;2.53;;;22.50;99.90;;;;;;5053769;28;20071;-88
2022/06/25 08:58:13;;;;;;;6.70;2.25;;;22.70;99.90;;;;;;5040452;28;20603;-89
2022/06/25 09:00:47;;;;;;;4.15;2.17;;;22.60;99.90;;;;;;5050564;28;20039;-90
2022/06/25 09:03:13;;;;;;;3.80;1.58;;;22.70;99.90;;;;;;5071452;28;20400;-89
2022/06/25 09:05:40;;;;;;;5.10;2.05;;;22.60;99.90;;;;;;5050540;28;20119;-87
2022/06/25 09:08:08;;;;;;;5.70;1.83;;;22.60;99.90;;;;;;5060596;28;20036;-87
2022/06/25 09:10:35;;;;;;;6.60;1.85;;;22.60;99.90;;;;;;5060381;28;20048;-89
2022/06/25 09:13:03;;;;;;;5.47;1.90;;;22.70;99.90;;;;;;5075266;28;20036;-89
2022/06/25 09:15:33;;;;;;;3.78;1.70;;;22.70;99.90;;;;;;5049045;28;20057;-89
2022/06/25 09:18:06;;;;;;;6.18;1.83;;;22.70;99.90;;;;;;5076528;28;20040;-90
2022/06/25 09:20:32;;;;;;;4.03;1.77;;;22.60;99.90;;;;;;5052452;28;20043;-92
2022/06/25 09:23:00;;;;;;;4.82;1.85;;;22.50;99.90;;;;;;5053958;28;20050;-91
2022/06/25 09:25:27;;;;;;;6.05;1.83;;;22.70;99.90;;;;;;5064071;28;20048;-89
2022/06/25 09:27:54;;;;;;;2.13;1.48;;;22.80;99.90;;;;;;5049348;28;20396;-86
2022/06/25 09:30:21;;;;;;;6.70;2.13;;;22.90;99.90;;;;;;5075714;28;20502;-89
2022/06/25 09:32:50;;;;;;;2.88;1.67;;;22.80;99.90;;;;;;5049335;28;20405;-87
2022/06/25 09:35:29;;;;;;;4.00;1.88;;;22.80;99.90;;;;;;5066615;28;20048;-91
2022/06/25 09:38:01;;;;;;;6.40;1.98;;;23.00;99.90;;;;;;5089126;28;20054;-88
2022/06/25 09:40:27;;;;;;;4.70;2.10;;;23.20;99.90;;;;;;5066033;28;20036;-88
2022/06/25 09:42:52;;;;;;;4.95;1.60;;;23.30;99.90;;;;;;5071433;28;20554;-87
2022/06/25 09:45:18;;;;;;;4.70;1.67;;;23.40;99.90;;;;;;5056597;28;20503;-86
2022/06/25 09:47:45;;;;;;;2.35;1.42;;;23.40;99.90;;;;;;5075209;28;20043;-90
2022/06/25 09:50:14;;;;;;;4.53;1.60;;;23.40;99.90;;;;;;5078074;28;20036;-86
2022/06/25 09:52:50;;;;;;;2.83;1.55;;;23.70;99.90;;;;;;5056162;28;20051;-91
2022/06/25 09:55:17;;;;;;;3.47;1.40;;;23.90;99.90;;;;;;5070724;28;20040;-91
2022/06/25 09:57:44;;;;;;;6.22;1.83;;;24.00;99.90;;;;;;5068129;28;20454;-93
2022/06/25 10:20:32;;;;;;;3.40;1.50;;;25.50;99.90;;;;;;4934433;29;20127;-95
2022/06/25 10:23:59;;;;;;;3.50;1.40;;;25.10;99.90;;;;;;5040874;22;20040;-90
2022/06/25 11:53:55;;;;;;;2.75;1.30;;;24.90;99.30;;;;;;5069791;28;20056;-80
2022/06/25 11:56:21;;;;;;;8.27;1.58;;;24.60;99.80;;;;;;5050890;28;21120;-79
2022/06/25 11:58:47;;;;;;;4.75;1.35;;;24.40;99.90;;;;;;5023150;28;20418;-80
2022/06/25 12:01:13;;;;;;;1.60;0.90;;;24.30;99.90;;;;;;5035950;28;20053;-79
2022/06/25 12:03:39;;;;;;;5.18;1.40;;;24.00;99.90;;;;;;5025222;28;20044;-80
2022/06/25 12:06:06;;;;;;;3.38;1.40;;;23.90;99.90;;;;;;5040852;28;20051;-79
2022/06/25 12:08:32;;;;;;;2.72;1.40;;;23.70;99.90;;;;;;5029976;28;20028;-80
2022/06/25 12:11:01;;;;;;;5.00;1.50;;;23.60;99.90;;;;;;5030901;28;20449;-79
2022/06/25 12:13:28;;;;;;;5.03;1.27;;;23.50;99.90;;;;;;5021471;28;20073;-79
2022/06/25 12:15:57;;;;;;;2.50;1.02;;;23.50;99.90;;;;;;5042678;28;20041;-80
2022/06/25 12:18:32;;;;;;;2.72;1.20;;;23.40;99.90;;;;;;5037521;28;20039;-81
2022/06/25 12:20:58;;;;;;;4.40;1.23;;;23.40;99.90;;;;;;5028748;28;20473;-80
2022/06/25 12:23:24;;;;;;;3.10;1.40;;;23.30;99.90;;;;;;5018251;28;20033;-80
2022/06/25 12:25:50;;;;;;;4.22;1.83;;;23.20;99.90;;;;;;5021066;28;20048;-80
2022/06/25 12:28:32;;;;;;;2.40;1.33;;;23.10;99.90;;;;;;5007905;28;20491;-79
2022/06/25 12:31:08;;;;;;;1.90;1.20;;;23.10;99.90;;;;;;5050306;28;20044;-80
2022/06/25 12:33:34;;;;;;;4.38;1.50;;;23.00;99.90;;;;;;5037599;28;20040;-80
2022/06/25 12:36:00;;;;;;;3.28;1.60;;;23.00;99.90;;;;;;5045939;28;20060;-80
2022/06/25 12:38:25;;;;;;;2.70;1.55;;;23.00;99.90;;;;;;5025932;28;20028;-80
2022/06/25 12:40:51;;;;;;;3.80;1.63;;;23.00;99.90;;;;;;5064042;28;20059;-80
2022/06/25 12:43:19;;;;;;;3.00;1.63;;;23.00;99.90;;;;;;5035507;28;20049;-81
2022/06/25 12:45:46;;;;;;;4.57;1.55;;;23.00;99.90;;;;;;5040256;28;20211;-80
2022/06/25 12:48:24;;;;;;;6.75;1.80;;;23.00;99.90;;;;;;5027717;28;20037;-80
2022/06/25 12:50:50;;;;;;;3.17;1.45;;;23.00;99.90;;;;;;5067546;28;20056;-80
2022/06/25 12:53:17;;;;;;;3.47;2.05;;;22.90;99.90;;;;;;5052555;28;20115;-80
2022/06/25 12:55:45;;;;;;;2.65;1.40;;;22.70;99.90;;;;;;5055025;28;20097;-81
2022/06/25 12:58:14;;;;;;;2.80;1.48;;;22.70;99.90;;;;;;5022375;28;20119;-80
2022/06/25 13:00:43;;;;;;;5.40;1.55;;;22.60;99.90;;;;;;5034528;28;20045;-80
2022/06/25 13:03:10;;;;;;;4.07;1.90;;;22.50;99.90;;;;;;5052871;28;20044;-80
2022/06/25 13:05:35;;;;;;;3.35;1.63;;;22.40;99.90;;;;;;5071527;28;20072;-80
2022/06/25 13:08:02;;;;;;;6.38;1.67;;;22.40;99.90;;;;;;5029795;28;20056;-80
2022/06/25 13:10:28;;;;;;;3.80;1.45;;;22.30;99.90;;;;;;5069138;28;20056;-80
2022/06/25 13:12:54;;;;;;;4.97;1.63;;;22.30;99.90;;;;;;5051664;28;20072;-80
2022/06/25 13:15:21;;;;;;;4.57;1.70;;;22.40;99.90;;;;;;5061077;28;20072;-80
2022/06/25 13:17:50;;;;;;;4.93;1.83;;;22.40;99.90;;;;;;5028652;28;20036;-81
2022/06/25 13:20:17;;;;;;;3.10;1.67;;;22.40;99.90;;;;;;5041798;28;20418;-80
2022/06/25 13:22:43;;;;;;;4.70;2.08;;;22.50;99.90;;;;;;5035278;28;20076;-80
2022/06/25 13:25:11;;;;;;;8.73;2.00;;;22.50;99.90;;;;;;5018858;28;20110;-79
2022/06/25 13:27:37;;;;;;;3.47;1.48;;;22.60;99.90;;;;;;5050972;28;20482;-80
2022/06/25 13:30:04;;;;;;;5.82;1.80;;;22.60;99.90;;;;;;5036701;28;20068;-80
2022/06/25 13:32:29;;;;;;;4.25;1.50;;;22.60;99.90;;;;;;5062781;28;20032;-80
2022/06/25 13:34:57;;;;;;;2.28;1.60;;;22.60;99.90;;;;;;5037656;28;20049;-80
2022/06/25 13:37:23;;;;;;;3.80;1.77;;;22.70;99.90;;;;;;5036425;28;20106;-80
2022/06/25 13:39:49;;;;;;;3.83;1.55;;;22.70;99.90;;;;;;5065108;28;20461;-80
2022/06/25 13:42:14;;;;;;;5.85;1.73;;;22.70;99.90;;;;;;5043526;28;20064;-79
2022/06/25 13:44:40;;;;;;;2.55;1.80;;;22.90;99.90;;;;;;5046178;28;20036;-80
2022/06/25 13:47:07;;;;;;;3.75;1.65;;;23.00;99.90;;;;;;5047871;28;20040;-80
2022/06/25 13:49:33;;;;;;;3.42;1.55;;;23.10;99.90;;;;;;5040645;28;20120;-80
2022/06/25 13:52:01;;;;;;;4.45;1.70;;;23.20;99.90;;;;;;5025553;28;20033;-80
2022/06/25 13:54:27;;;;;;;3.70;1.67;;;23.50;99.90;;;;;;5033906;28;20085;-80
2022/06/25 13:56:53;;;;;;;2.83;1.98;;;23.60;99.90;;;;;;5046141;28;20106;-80
2022/06/25 13:59:19;;;;;;;3.03;1.90;;;23.70;99.90;;;;;;5060016;28;20467;-79
2022/06/25 14:01:45;;;;;;;2.72;1.80;;;23.90;99.90;;;;;;5035064;28;20136;-80
2022/06/25 14:04:10;;;;;;;3.38;1.45;;;24.00;99.90;;;;;;5057065;28;20071;-80
2022/06/25 14:06:39;;;;;;;4.63;1.85;;;24.10;99.90;;;;;;5032721;28;20051;-80
2022/06/25 14:09:06;;;;;;;3.55;2.00;;;24.30;99.90;;;;;;5042577;28;20029;-79
2022/06/25 14:11:33;;;;;;;5.63;2.03;;;24.50;99.90;;;;;;5032403;28;20495;-79
2022/06/25 14:13:59;;;;;;;6.97;2.08;;;24.80;99.90;;;;;;5066746;28;20040;-79
2022/06/25 14:16:24;;;;;;;3.97;1.88;;;25.10;99.90;;;;;;5033017;28;20087;-80
2022/06/25 14:18:50;;;;;;;2.72;1.65;;;25.30;99.90;;;;;;5040135;28;20554;-80
2022/06/25 14:21:16;;;;;;;2.92;1.40;;;25.60;99.90;;;;;;5048108;28;20053;-80
2022/06/25 14:23:42;;;;;;;2.85;1.73;;;25.70;99.90;;;;;;5051522;28;20098;-80
2022/06/25 14:26:09;;;;;;;2.97;1.50;;;25.60;99.90;;;;;;5027779;28;20469;-79
2022/06/25 14:28:35;;;;;;;2.50;1.50;;;25.70;99.90;;;;;;5027842;28;20445;-80
2022/06/25 14:31:00;;;;;;;2.53;1.10;;;26.00;99.90;;;;;;5035558;28;20052;-79
2022/06/25 14:33:27;;;;;;;2.22;1.20;;;26.10;99.90;;;;;;5056447;28;20057;-80
2022/06/25 14:44:07;;;;;;;3.35;1.10;;;26.10;99.90;;;;;;5063280;28;20048;-80